Latest Coastal Weather Observations for Merimbula

IDN60701

Issued at 3:15 am EDT Sunday 26 October 2014 (issued every 10 minutes, with the page automatically refreshed every 10 minutes)

About coastal observations | Map of coastal stations | Coastal observations for NSW | Marine services | Other Formats
Station Details ID: 069147 Name: MERIMBULA AIRPORT AWS Lat: -36.91 Lon: 149.90 Height: 1.5 m
Data from the previous 72 hours. | See also: Recent months at Merimbula
Date/Time
EDT
Temp

°C
Wind Pressure Rain
since 9am
mm
Weather Cloud Vis
km
Sea
Height
m
Swell
Dir
 
Speed
knots
Gust
knots
hPa Trend Height
m
Period
s
Dir
26/03:00am 15.3 S 0 0 1012.4 - 2.8 Rain Cloudy 2 - - - -
26/02:30am 15.5 CALM 0 0 1012.8 - 2.4 - Partly cloudy 2 - - - -
26/02:00am 15.6 CALM 0 0 1013.4 - 2.2 - Cloudy 2 - - - -
26/01:30am 15.8 CALM 0 0 1014.0 - 2.2 - Partly cloudy 2 - - - -
26/01:00am 15.7 CALM 0 0 1014.5 - 2.2 - Partly cloudy 2 - - - -
26/12:30am 15.7 CALM 0 0 1014.9 - 2.2 - Partly cloudy 3 - - - -
26/12:00am 15.5 SE 2 5 1015.6 - 2.0 Recent precip. Cloudy 2 - - - -
 
Date/Time
EDT
Temp

°C
Wind Pressure Rain
since 9am
mm
Weather Cloud Vis
km
Sea
Height
m
Swell
Dir
 
Speed
knots
Gust
knots
hPa Trend Height
m
Period
s
Dir
25/11:30pm 15.4 SSE 5 6 1015.8 - 1.8 - Partly cloudy 1 - - - -
25/11:00pm 15.5 SSE 5 7 1015.9 - 1.2 - Cloudy 1 - - - -
25/10:30pm 15.6 SSE 5 7 1016.0 - 1.0 - Cloudy 2 - - - -
25/10:00pm 15.8 SE 5 7 1016.2 - 0.8 - Cloudy 2 - - - -
25/09:30pm 16.0 CALM 0 0 1016.4 - 0.6 - Cloudy 2 - - - -
25/09:00pm 16.2 CALM 0 0 1016.4 - 0.4 - Cloudy 2 - - - -
25/08:30pm 16.1 CALM 0 0 1016.3 - 0.4 - Cloudy 4 - - - -
25/08:07pm 16.2 CALM 0 0 1016.2 - 0.4 - Partly cloudy 5 - - - -
25/08:00pm 16.2 CALM 0 0 1016.2 - 0.4 - Cloudy 6 - - - -
25/07:30pm 16.2 CALM 0 0 1016.2 - 0.4 - Partly cloudy 7 - - - -
25/07:00pm 16.1 NE 4 9 1015.5 - 0.4 - Partly cloudy 8 - - - -
25/06:45pm 16.5 S 5 8 1015.6 - 0.4 - Partly cloudy 7 - - - -
25/06:30pm 16.4 SSE 6 8 1016.3 - 0.4 - Cloudy 5 - - - -
25/06:28pm 16.6 S 5 8 1016.7 - 0.4 - Cloudy 5 - - - -
25/06:00pm 16.4 SSE 2 7 1015.5 - 0.0 - Cloudy 10 - - - -
25/05:30pm 16.5 SSE 4 7 1015.7 - 0.0 - Cloudy 10 - - - -
25/05:00pm 16.6 SE 6 8 1015.3 - 0.0 - Cloudy 10 - - - -
25/04:30pm 16.9 SE 8 11 1014.9 - 0.0 - Cloudy 10 - - - -
25/04:00pm 17.1 SE 8 12 1015.6 - 0.0 - Cloudy 10 - - - -
25/03:30pm 17.7 ESE 9 13 1015.3 - 0.0 - Cloudy 10 - - - -
25/03:00pm 17.7 SE 9 13 1015.7 - 0.0 - Cloudy 10 - - - -
25/02:30pm 17.5 SE 10 13 1016.1 - 0.0 - Cloudy 9 - - - -
25/02:00pm 18.8 ESE 9 15 1016.3 - 0.0 - Cloudy 10 - - - -
25/01:37pm 19.2 ESE 9 16 1016.2 - 0.0 - Partly cloudy 10 - - - -
25/01:30pm 19.1 ESE 8 13 1016.2 - 0.0 - Partly cloudy 10 - - - -
25/01:00pm 19.3 ESE 8 13 1016.2 - 0.0 - - 10 - - - -
25/12:30pm 20.1 E 6 9 1016.3 - 0.0 - - 10 - - - -
25/12:00pm 20.0 E 8 11 1016.5 - 0.0 - - 10 - - - -
25/11:30am 19.6 ENE 7 11 1016.6 - 0.0 - - 10 - - - -
25/11:00am 19.0 ENE 8 12 1016.6 - 0.0 - Partly cloudy 10 - - - -
25/10:57am 19.3 ENE 8 11 1016.6 - 0.0 - Partly cloudy 10 - - - -
25/10:30am 19.1 E 7 12 1016.5 - 0.0 - Cloudy 10 - - - -
25/10:00am 19.5 ESE 8 12 1016.5 - 0.0 - Cloudy 10 - - - -
25/09:46am 20.1 ESE 7 11 1016.4 - 0.0 - Partly cloudy 10 - - - -
25/09:30am 20.6 E 5 9 1016.2 - 0.0 - - 10 - - - -
25/09:00am 19.2 E 5 7 1016.1 - 0.0 - - 10 - - - -
25/08:30am 17.9 NE 4 7 1015.9 - 0.0 - - 10 - - - -
25/08:00am 17.1 NE 4 7 1015.8 - 0.0 - - 7 - - - -
25/07:55am 16.9 NE 2 5 1015.8 - 0.0 - - 7 - - - -
25/07:33am 16.6 CALM 0 0 1015.5 - 0.0 - - 5 - - - -
25/07:30am 16.8 CALM 0 0 1015.5 - 0.0 - - 7 - - - -
25/07:07am 15.7 CALM 0 0 1015.1 - 0.0 - - 7 - - - -
25/07:00am 15.3 CALM 0 0 1015.0 - 0.0 - - 7 - - - -
25/06:30am 13.6 CALM 0 0 1014.6 - 0.0 - - 4 - - - -
25/06:00am 14.2 W 2 4 1014.2 - 0.0 - - 2 - - - -
25/05:30am 14.3 NNW 5 7 1014.0 - 0.0 - - 4 - - - -
25/05:00am 13.9 CALM 0 0 1013.9 - 0.0 - Partly cloudy 3 - - - -
25/04:30am 14.3 NW 1 5 1013.4 - 0.0 - - 4 - - - -
25/04:00am 13.6 CALM 0 0 1013.1 - 0.0 - - 1 - - - -
25/03:30am 14.4 CALM 0 0 1013.0 - 0.0 - - 5 - - - -
25/03:00am 14.5 CALM 0 0 1012.6 - 0.0 - - 4 - - - -
25/02:30am 14.5 CALM 0 0 1012.6 - 0.0 - Partly cloudy 4 - - - -
25/02:00am 14.1 CALM 0 0 1012.3 - 0.0 - - 5 - - - -
25/01:30am 14.5 CALM 0 0 1012.1 - 0.0 - Partly cloudy 2 - - - -
25/01:00am 14.6 CALM 0 0 1012.2 - 0.0 - - 3 - - - -
25/12:30am 14.9 CALM 0 0 1012.2 - 0.0 - - 4 - - - -
25/12:00am 15.2 CALM 0 0 1012.1 - 0.0 - - 4 - - - -
 
Date/Time
EDT
Temp

°C
Wind Pressure Rain
since 9am
mm
Weather Cloud Vis
km
Sea
Height
m
Swell
Dir
 
Speed
knots
Gust
knots
hPa Trend Height
m
Period
s
Dir
24/11:30pm 15.5 CALM 0 0 1012.1 - 0.0 - - 4 - - - -
24/11:00pm 16.5 S 2 5 1012.1 - 0.0 - - 5 - - - -
24/10:30pm 16.3 CALM 0 0 1012.0 - 0.0 - - 4 - - - -
24/10:00pm 17.1 SSW 3 4 1012.0 - 0.0 - - 5 - - - -
24/09:30pm 17.4 CALM 0 0 1011.8 - 0.0 - - 4 - - - -
24/09:00pm 17.5 CALM 0 0 1011.8 - 0.0 - - 2 - - - -
24/08:44pm 18.1 CALM 0 0 1011.8 - 0.0 - - 5 - - - -
24/08:30pm 18.4 CALM 0 0 1011.6 - 0.0 - - 6 - - - -
24/08:23pm 18.5 CALM 0 0 1011.5 - 0.0 - - 6 - - - -
24/08:00pm 18.5 CALM 0 0 1011.4 - 0.0 - - 4 - - - -
24/07:30pm 19.4 CALM 0 0 1011.2 - 0.0 - - 5 - - - -
24/07:25pm 19.5 CALM 0 0 1011.2 - 0.0 - - 5 - - - -
24/07:00pm 19.9 E 2 5 1011.0 - 0.0 - - 8 - - - -
24/06:30pm 20.0 NNE 6 9 1010.8 - 0.0 - - 9 - - - -
24/06:00pm 20.0 NE 8 12 1010.8 - 0.0 - - 10 - - - -
24/05:30pm 20.0 NNE 7 12 1010.8 - 0.0 - Partly cloudy 10 - - - -
24/05:00pm 20.4 NE 9 14 1010.7 - 0.0 - Partly cloudy 9 - - - -
24/04:30pm 21.1 ENE 9 13 1010.9 - 0.0 - - 10 - - - -
24/04:00pm 22.7 NE 11 15 1011.0 - 0.0 - - 10 - - - -
24/03:30pm 23.0 NNE 9 15 1011.1 - 0.0 - - 10 - - - -
24/03:00pm 23.1 NE 13 20 1011.5 - 0.0 - - 10 - - - -
24/02:30pm 24.0 NE 10 17 1011.9 - 0.0 - - 10 - - - -
24/02:00pm 23.2 NE 10 15 1012.4 - 0.0 - - 10 - - - -
24/01:30pm 23.0 NE 12 17 1012.9 - 0.0 - - 10 - - - -
24/01:00pm 22.9 NE 11 17 1013.3 - 0.0 - - 10 - - - -
24/12:30pm 22.7 NNE 10 19 1014.0 - 0.0 - - 10 - - - -
24/12:00pm 22.4 NNE 9 17 1014.5 - 0.0 - - 10 - - - -
24/11:30am 22.4 NNE 10 16 1015.2 - 0.0 - - 10 - - - -
24/11:00am 22.9 NNE 8 14 1015.8 - 0.0 - - 10 - - - -
24/10:30am 22.3 N 6 10 1016.2 - 0.0 - - 10 - - - -
24/10:00am 21.0 N 5 9 1016.8 - 0.0 - - 10 - - - -
24/09:30am 20.7 N 6 10 1017.2 - 0.0 - - 10 - - - -
24/09:00am 19.8 N 5 10 1017.6 - 1.8 - Mostly clear 10 - - - -
24/08:30am 19.3 CALM 0 0 1017.7 - 1.8 - - 10 - - - -
24/08:00am 17.7 CALM 0 0 1017.8 - 1.8 - - 10 - - - -
24/07:30am 17.1 CALM 0 0 1018.1 - 1.8 - - 10 - - - -
24/07:18am 17.0 CALM 0 0 1018.2 - 1.8 - Partly cloudy 4 - - - -
24/07:00am 17.1 CALM 0 0 1018.1 - 1.8 - Partly cloudy 5 - - - -
24/06:49am 17.0 CALM 0 0 1018.2 - 1.8 - Partly cloudy 5 - - - -
24/06:30am 16.9 CALM 0 0 1018.0 - 1.8 - Partly cloudy 5 - - - -
24/06:00am 16.8 CALM 0 0 1018.0 - 1.8 Recent precip. Mostly cloudy 4 - - - -
24/05:30am 16.8 CALM 0 0 1018.0 - 1.8 - Partly cloudy 4 - - - -
24/05:04am 16.8 E 2 5 1017.8 - 1.8 - Partly cloudy 5 - - - -
24/05:00am 16.8 SE 5 9 1017.7 - 1.6 - Partly cloudy 7 - - - -
24/04:42am 17.0 WSW 5 7 1018.3 - 1.2 - Partly cloudy 9 - - - -
24/04:30am 16.7 SSW 4 7 1017.4 - 1.2 - Partly cloudy 5 - - - -
24/04:28am 16.7 SSW 4 7 1017.3 - 1.2 - Partly cloudy 5 - - - -
24/04:15am 16.7 N 6 9 1016.9 - 1.0 - Partly cloudy 6 - - - -
24/04:00am 16.5 N 3 7 1017.8 - 0.8 - Partly cloudy 6 - - - -
24/03:38am 16.6 SW 5 7 1018.5 - 0.6 - Partly cloudy 7 - - - -
24/03:30am 16.5 S 6 11 1018.2 - 0.6 - Partly cloudy 7 - - - -
24/03:00am 16.5 N 3 6 1018.9 - 0.6 Recent precip. Partly cloudy 8 - - - -
24/02:57am 16.5 NNW 5 8 1019.1 - 0.6 - Partly cloudy 8 - - - -
24/02:33am 16.5 W 5 8 1019.6 - 0.4 - Partly cloudy 9 - - - -
24/02:30am 16.6 W 5 8 1019.5 - 0.4 - Partly cloudy 8 - - - -
24/02:00am 16.4 WNW 2 6 1019.1 - 0.4 - Partly cloudy 6 - - - -
24/01:30am 15.8 CALM 0 0 1019.4 - 0.2 - Partly cloudy 7 - - - -
24/01:00am 15.8 CALM 0 0 1019.7 - 0.2 - Partly cloudy 6 - - - -
24/12:46am 16.0 CALM 0 0 1019.8 - 0.2 - Partly cloudy 7 - - - -
24/12:30am 16.7 CALM 0 0 1019.9 - 0.2 - Partly cloudy 9 - - - -
24/12:00am 16.9 CALM 0 1 1020.2 - 0.2 - Cloudy 10 - - - -
 
Date/Time
EDT
Temp

°C
Wind Pressure Rain
since 9am
mm
Weather Cloud Vis
km
Sea
Height
m
Swell
Dir
 
Speed
knots
Gust
knots
hPa Trend Height
m
Period
s
Dir
23/11:30pm 16.7 CALM 0 0 1020.4 - 0.2 - Cloudy 9 - - - -
23/11:00pm 17.0 CALM 0 0 1020.2 - 0.2 - Cloudy 10 - - - -
23/10:30pm 16.9 CALM 0 0 1020.0 - 0.2 - Cloudy 9 - - - -
23/10:00pm 16.9 CALM 0 0 1019.9 - 0.2 - Cloudy 9 - - - -
23/09:43pm 16.8 CALM 0 0 1020.2 - 0.2 - Partly cloudy 8 - - - -
23/09:30pm 16.7 ESE 2 5 1019.9 - 0.2 - Partly cloudy 8 - - - -
23/09:06pm 16.8 E 7 10 1019.0 - 0.2 - Partly cloudy 7 - - - -
23/09:00pm 16.9 ENE 5 10 1019.2 - 0.2 - Cloudy 6 - - - -
23/08:33pm 17.2 E 1 4 1020.7 - 0.2 - Partly cloudy 5 - - - -
23/08:30pm 17.2 E 1 5 1020.7 - 0.2 - Partly cloudy 6 - - - -
23/08:00pm 17.4 NNW 5 8 1020.3 - 0.2 - Partly cloudy 9 - - - -
23/07:38pm 17.2 SSW 7 11 1019.9 - 0.2 - Partly cloudy 9 - - - -
23/07:30pm 17.3 S 7 11 1019.6 - 0.2 - Partly cloudy 8 - - - -
23/07:14pm 17.2 SSE 5 8 1018.7 - 0.2 - Partly cloudy 8 - - - -
23/07:00pm 17.4 ESE 5 8 1019.4 - 0.2 - Partly cloudy 5 - - - -
23/06:58pm 17.3 ENE 5 8 1019.2 - 0.0 - Partly cloudy 5 - - - -
23/06:45pm 17.4 ESE 4 7 1019.0 - 0.0 - Partly cloudy 7 - - - -
23/06:30pm 17.4 S 4 7 1019.7 - 0.0 - Partly cloudy 9 - - - -
23/06:00pm 17.4 SE 5 7 1018.8 - 0.0 - Mostly cloudy 8 - - - -
23/05:30pm 17.5 ENE 5 8 1019.2 - 0.0 - Cloudy 9 - - - -
23/05:00pm 18.0 E 6 9 1019.5 - 0.0 - Cloudy 9 - - - -
23/04:30pm 18.4 E 9 13 1018.6 - 0.0 - Cloudy 10 - - - -
23/04:09pm 19.3 E 7 11 1018.5 - 0.0 - Partly cloudy 10 - - - -
23/04:00pm 20.3 E 8 12 1018.3 - 0.0 - Partly cloudy 10 - - - -
23/03:30pm 20.8 ENE 8 13 1018.0 - 0.0 - - 10 - - - -
23/03:00pm 20.9 ENE 8 12 1017.9 - 0.0 - - 10 - - - -
23/02:30pm 21.8 E 7 12 1018.0 - 0.0 - - 10 - - - -
23/02:00pm 21.9 E 7 11 1018.0 - 0.0 - - 10 - - - -
23/01:30pm 23.1 E 8 12 1017.8 - 0.0 - - 10 - - - -
23/01:00pm 23.1 ENE 7 9 1017.9 - 0.0 - - 10 - - - -
23/12:30pm 23.1 E 6 9 1018.0 - 0.0 - - 10 - - - -
23/12:00pm 23.2 E 7 10 1018.1 - 0.0 - - 10 - - - -
23/11:30am 23.6 E 5 8 1018.2 - 0.0 - - 10 - - - -
23/11:00am 22.2 SW 1 5 1018.4 - 0.0 - - 10 - - - -
23/10:30am 21.4 SSW 5 7 1018.3 - 0.0 - - 10 - - - -
23/10:00am 20.1 S 4 5 1018.1 - 0.0 - - 10 - - - -
23/09:30am 19.3 CALM 0 0 1017.8 - 0.0 - - 10 - - - -
23/09:00am 17.7 CALM 0 4 1017.4 - 0.0 - Partly cloudy 10 - - - -
23/08:30am 17.1 CALM 0 0 1017.1 - 0.0 - - 10 - - - -
23/08:00am 15.6 CALM 0 0 1018.0 - 0.0 - - 10 - - - -
23/07:30am 14.3 CALM 0 0 1017.9 - 0.0 - - 10 - - - -
23/07:00am 12.2 S 1 4 1017.5 - 0.0 - - 8 - - - -
23/06:36am 11.3 S 3 5 1016.8 - 0.0 - - 10 - - - -
23/06:30am 10.7 SSW 1 5 1016.7 - 0.0 - - 7 - - - -
23/06:20am 10.6 CALM 0 0 1016.7 - 0.0 - - 5 - - - -
23/06:00am 11.0 CALM 0 3 1016.5 - 0.0 - Mostly cloudy 10 - - - -
23/05:30am 11.5 CALM 0 5 1016.4 - 0.0 - - 8 - - - -
23/05:00am 12.0 CALM 0 0 1016.3 - 0.0 - - 10 - - - -
23/04:30am 12.3 CALM 0 0 1016.4 - 0.0 - - 10 - - - -
23/04:00am 12.3 CALM 0 0 1016.4 - 0.0 - - 10 - - - -
23/03:30am 12.2 CALM 0 0 1016.4 - 0.0 - - 10 - - - -

Other Formats:

Comma delimited format used in spreadsheet applications
http://www.bom.gov.au/fwo/IDN60701/IDN60701.95929.axf

JavaScript Object Notation format (JSON) in row-major order
http://www.bom.gov.au/fwo/IDN60701/IDN60701.95929.json